createdAt,value
2018-07-20T00:01:36.698Z,10.73
2018-07-20T00:04:05.181Z,4.40
2018-07-20T00:06:33.709Z,4.93
2018-07-20T00:09:02.220Z,5.00
2018-07-20T00:11:30.660Z,6.50
2018-07-20T00:13:59.277Z,5.87
2018-07-20T00:16:27.695Z,4.87
2018-07-20T00:18:56.089Z,6.97
2018-07-20T00:21:24.491Z,4.93
2018-07-20T00:23:52.988Z,10.30
2018-07-20T00:26:21.571Z,8.27
2018-07-20T00:28:49.959Z,8.30
2018-07-20T00:31:18.343Z,8.50
2018-07-20T00:33:46.831Z,7.80
2018-07-20T00:36:15.272Z,8.00
2018-07-20T00:38:43.742Z,11.30
2018-07-20T00:41:12.493Z,5.80
2018-07-20T00:43:40.862Z,7.37
2018-07-20T00:46:09.344Z,13.03
2018-07-20T00:48:37.724Z,7.40
2018-07-20T00:51:06.696Z,12.23
2018-07-20T00:53:35.140Z,15.90
2018-07-20T00:56:03.553Z,7.50
2018-07-20T00:58:31.932Z,8.13
2018-07-20T01:01:00.336Z,6.43
2018-07-20T01:03:28.776Z,6.90
2018-07-20T01:05:57.165Z,7.83
2018-07-20T01:08:25.572Z,10.43
2018-07-20T01:10:54.000Z,7.87
2018-07-20T01:13:22.471Z,7.30
2018-07-20T01:15:50.865Z,8.03
2018-07-20T01:18:19.266Z,10.50
2018-07-20T01:20:47.661Z,7.40
2018-07-20T01:23:16.208Z,5.77
2018-07-20T01:25:44.604Z,5.70
2018-07-20T01:28:12.996Z,6.93
2018-07-20T01:30:41.430Z,10.03
2018-07-20T01:33:09.904Z,7.07
2018-07-20T01:35:38.284Z,6.47
2018-07-20T01:38:06.734Z,7.40
2018-07-20T01:40:35.137Z,8.73
2018-07-20T01:43:03.524Z,8.07
2018-07-20T01:45:31.952Z,7.63
2018-07-20T01:48:00.336Z,7.00
2018-07-20T01:50:28.744Z,8.67
2018-07-20T01:52:57.129Z,7.73
2018-07-20T01:55:25.852Z,9.97
2018-07-20T01:57:54.265Z,10.77
2018-07-20T02:00:22.669Z,7.57
2018-07-20T02:02:51.073Z,8.07
2018-07-20T02:05:19.486Z,12.90
2018-07-20T02:07:47.896Z,7.37
2018-07-20T02:10:16.525Z,11.77
2018-07-20T02:12:44.912Z,11.00
2018-07-20T02:15:13.328Z,10.23
2018-07-20T02:17:41.739Z,10.80
2018-07-20T02:20:10.127Z,9.23
2018-07-20T02:22:38.528Z,15.47
2018-07-20T02:25:06.984Z,8.67
2018-07-20T02:27:35.371Z,10.40
2018-07-20T02:30:04.197Z,11.23
2018-07-20T02:32:32.613Z,12.83
2018-07-20T02:35:01.174Z,11.30
2018-07-20T02:37:29.564Z,9.17
2018-07-20T02:39:57.949Z,11.10
2018-07-20T02:42:26.420Z,14.10
2018-07-20T02:44:54.824Z,11.40
2018-07-20T02:47:23.244Z,13.13
2018-07-20T02:49:51.997Z,15.50
2018-07-20T02:52:20.388Z,10.03
2018-07-20T02:54:48.980Z,11.73
2018-07-20T02:57:17.432Z,12.33
2018-07-20T02:59:45.816Z,10.53
2018-07-20T03:02:14.220Z,9.90
2018-07-20T03:04:42.613Z,11.83
2018-07-20T03:07:11.979Z,13.13
2018-07-20T03:09:40.373Z,11.50
2018-07-20T03:12:08.748Z,10.20
2018-07-20T03:14:37.176Z,10.30
2018-07-20T03:17:05.952Z,15.57
2018-07-20T03:19:34.404Z,17.17
2018-07-20T03:22:02.830Z,13.50
2018-07-20T03:24:31.225Z,11.73
2018-07-20T03:26:59.652Z,11.53
2018-07-20T03:29:28.076Z,10.80
2018-07-20T03:31:56.497Z,11.87
2018-07-20T03:34:24.904Z,14.93
2018-07-20T03:36:53.543Z,13.77
2018-07-20T03:39:21.933Z,15.33
2018-07-20T03:41:50.324Z,17.53
2018-07-20T03:44:18.831Z,11.47
2018-07-20T03:46:47.209Z,15.30
2018-07-20T03:49:15.613Z,11.80
2018-07-20T03:51:44.029Z,13.23
2018-07-20T03:54:12.177Z,12.80
2018-07-20T03:56:40.590Z,13.73
2018-07-20T03:59:09.005Z,14.07
2018-07-20T04:01:37.412Z,14.93
2018-07-20T04:04:05.835Z,16.17
2018-07-20T04:06:34.220Z,13.27
2018-07-20T04:09:02.680Z,12.17
2018-07-20T04:11:31.064Z,13.00
2018-07-20T04:13:59.472Z,17.50
2018-07-20T04:16:27.860Z,19.37
2018-07-20T04:18:56.261Z,17.53
2018-07-20T04:21:24.705Z,18.83
2018-07-20T04:23:53.117Z,17.93
2018-07-20T04:26:21.536Z,23.03
2018-07-20T04:28:49.728Z,16.67
2018-07-20T04:31:18.341Z,17.03
2018-07-20T04:33:46.804Z,19.20
2018-07-20T04:36:15.226Z,18.10
2018-07-20T04:38:44.011Z,22.20
2018-07-20T04:41:12.452Z,16.67
2018-07-20T04:43:41.059Z,15.60
2018-07-20T04:46:09.468Z,14.53
2018-07-20T04:48:37.869Z,15.90
2018-07-20T04:51:06.785Z,15.80
2018-07-20T04:53:35.201Z,17.37
2018-07-20T04:56:03.592Z,18.47
2018-07-20T04:58:31.698Z,16.50
2018-07-20T05:01:00.092Z,17.03
2018-07-20T05:03:28.491Z,23.43
2018-07-20T05:05:57.099Z,18.60
2018-07-20T05:08:25.439Z,24.50
2018-07-20T05:10:53.855Z,21.57
2018-07-20T05:13:22.308Z,16.90
2018-07-20T05:15:50.731Z,17.77
2018-07-20T05:18:19.112Z,16.40
2018-07-20T05:20:47.556Z,16.87
2018-07-20T05:23:15.968Z,15.23
2018-07-20T05:25:44.380Z,13.17
2018-07-20T05:28:12.792Z,18.80
2018-07-20T05:30:41.200Z,16.10
2018-07-20T05:33:09.628Z,19.90
2018-07-20T05:35:38.236Z,16.23
2018-07-20T05:38:06.756Z,16.90
2018-07-20T05:40:35.110Z,14.63
2018-07-20T05:43:03.568Z,14.63
2018-07-20T05:45:31.984Z,17.33
2018-07-20T05:48:00.425Z,16.77
2018-07-20T05:50:28.858Z,17.73
2018-07-20T05:52:57.403Z,15.70
2018-07-20T05:55:25.828Z,21.70
2018-07-20T05:57:54.589Z,17.67
2018-07-20T06:00:23.037Z,21.63
2018-07-20T06:02:51.457Z,17.90
2018-07-20T06:05:19.877Z,18.60
2018-07-20T06:07:48.315Z,23.57
2018-07-20T06:10:16.407Z,23.23
2018-07-20T06:12:44.876Z,19.63
2018-07-20T06:15:13.272Z,18.97
2018-07-20T06:17:42.720Z,21.10
2018-07-20T06:20:11.191Z,22.60
2018-07-20T06:22:39.735Z,29.60
2018-07-20T06:25:08.198Z,25.47
2018-07-20T06:27:36.637Z,29.83
2018-07-20T06:30:06.123Z,34.40
2018-07-20T06:32:34.529Z,22.37
2018-07-20T06:35:02.932Z,30.43
2018-07-20T06:37:31.508Z,25.93
2018-07-20T06:39:59.632Z,45.13
2018-07-20T06:42:28.085Z,28.20
2018-07-20T06:44:56.493Z,48.83
2018-07-20T06:47:25.465Z,29.07
2018-07-20T06:49:53.963Z,30.23
2018-07-20T06:52:22.451Z,23.63
2018-07-20T06:54:50.860Z,23.73
2018-07-20T06:57:19.280Z,26.17
2018-07-20T06:59:47.686Z,30.90
2018-07-20T07:02:16.119Z,25.17
2018-07-20T07:04:44.525Z,26.70
2018-07-20T07:07:12.923Z,37.30
2018-07-20T07:09:41.461Z,25.57
2018-07-20T07:12:09.854Z,24.57
2018-07-20T07:14:38.294Z,27.90
2018-07-20T07:17:06.749Z,21.03
2018-07-20T07:19:35.122Z,37.70
2018-07-20T07:22:03.574Z,23.57
2018-07-20T07:24:32.002Z,23.53
2018-07-20T07:27:00.460Z,23.17
2018-07-20T07:29:28.909Z,30.30
2018-07-20T07:31:57.321Z,26.93
2018-07-20T07:34:25.731Z,28.40
2018-07-20T07:36:53.883Z,21.87
2018-07-20T07:39:22.357Z,22.70
2018-07-20T07:41:51.605Z,22.27
2018-07-20T07:44:20.617Z,21.77
2018-07-20T07:46:49.051Z,21.50
2018-07-20T07:49:18.228Z,20.73
2018-07-20T07:51:46.381Z,20.43
2018-07-20T07:54:14.845Z,25.73
2018-07-20T07:56:43.252Z,24.40
2018-07-20T07:59:11.845Z,18.30
2018-07-20T08:01:40.232Z,19.77
2018-07-20T08:04:09.289Z,23.63
2018-07-20T08:06:38.113Z,25.23
2018-07-20T08:09:10.177Z,23.93
2018-07-20T08:11:39.240Z,23.90
2018-07-20T08:14:11.300Z,25.20
2018-07-20T08:16:39.829Z,27.93
2018-07-20T08:19:08.282Z,14.47
2018-07-20T08:21:37.347Z,21.33
2018-07-20T08:24:06.146Z,18.07
2018-07-20T08:26:34.580Z,18.83
2018-07-20T08:29:03.005Z,22.03
2018-07-20T08:31:31.475Z,28.77
2018-07-20T08:33:59.872Z,22.13
2018-07-20T08:36:28.319Z,20.30
2018-07-20T08:38:56.915Z,15.67
2018-07-20T08:41:25.350Z,26.50
2018-07-20T08:43:53.802Z,21.10
2018-07-20T08:46:22.265Z,24.97
2018-07-20T08:48:51.234Z,16.50
2018-07-20T08:51:19.662Z,23.27
2018-07-20T08:53:48.080Z,14.33
2018-07-20T08:56:16.836Z,21.30
2018-07-20T08:58:44.960Z,14.10
2018-07-20T09:01:13.481Z,17.03
2018-07-20T09:03:42.023Z,16.57
2018-07-20T09:06:10.445Z,19.90
2018-07-20T09:08:38.925Z,18.90
2018-07-20T09:11:07.778Z,14.90
2018-07-20T09:13:36.382Z,30.20
2018-07-20T09:16:04.719Z,15.30
2018-07-20T09:18:33.162Z,16.43
2018-07-20T09:21:01.663Z,18.10
2018-07-20T09:23:30.004Z,21.23
2018-07-20T09:25:58.465Z,15.57
2018-07-20T09:28:26.958Z,27.43
2018-07-20T09:30:55.393Z,17.80
2018-07-20T09:33:23.896Z,16.30
2018-07-20T09:35:52.508Z,12.33
2018-07-20T09:38:20.915Z,20.90
2018-07-20T09:40:49.335Z,12.27
2018-07-20T09:43:17.756Z,15.10
2018-07-20T09:45:46.173Z,18.37
2018-07-20T09:48:14.583Z,7.13
2018-07-20T09:50:43.077Z,16.13
2018-07-20T09:53:11.476Z,8.37
2018-07-20T09:55:39.908Z,7.53
2018-07-20T09:58:08.328Z,15.10
2018-07-20T10:00:38.549Z,9.53
2018-07-20T10:03:07.272Z,8.67
2018-07-20T10:05:35.734Z,8.50
2018-07-20T10:08:04.241Z,14.10
2018-07-20T10:10:32.661Z,10.20
2018-07-20T10:13:01.569Z,9.87
2018-07-20T10:15:29.960Z,14.10
2018-07-20T10:17:58.401Z,10.13
2018-07-20T10:20:27.304Z,13.60
2018-07-20T10:22:55.709Z,7.80
2018-07-20T10:25:24.124Z,10.40
2018-07-20T10:27:52.593Z,9.30
2018-07-20T10:30:21.104Z,9.47
2018-07-20T10:32:49.545Z,8.27
2018-07-20T10:35:18.268Z,17.60
2018-07-20T10:37:46.697Z,13.10
2018-07-20T10:40:15.133Z,10.70
2018-07-20T10:42:43.589Z,10.87
2018-07-20T10:45:12.079Z,12.77
2018-07-20T10:47:40.519Z,9.20
2018-07-20T10:50:09.437Z,11.83
2018-07-20T10:52:37.928Z,7.57
2018-07-20T10:55:06.552Z,11.63
2018-07-20T10:57:35.222Z,11.73
2018-07-20T11:00:03.728Z,7.53
2018-07-20T11:02:32.258Z,8.17
2018-07-20T11:05:00.707Z,13.20
2018-07-20T11:07:29.121Z,8.43
2018-07-20T11:09:57.521Z,12.17
2018-07-20T11:12:25.947Z,10.53
2018-07-20T11:14:54.344Z,7.33
2018-07-20T11:17:22.796Z,15.00
2018-07-20T11:19:51.203Z,8.40
2018-07-20T11:22:19.634Z,14.70
2018-07-20T11:24:48.306Z,12.40
2018-07-20T11:27:16.390Z,8.70
2018-07-20T11:29:44.822Z,9.67
2018-07-20T11:32:13.246Z,9.13
2018-07-20T11:34:41.702Z,11.20
2018-07-20T11:37:10.119Z,8.90
2018-07-20T11:39:38.588Z,10.30
2018-07-20T11:42:07.017Z,9.10
2018-07-20T11:44:35.625Z,9.77
2018-07-20T11:47:04.068Z,13.53
2018-07-20T11:49:32.477Z,10.90
2018-07-20T11:52:00.919Z,9.00
2018-07-20T11:54:29.336Z,11.13
2018-07-20T11:56:57.781Z,11.20
2018-07-20T11:59:26.198Z,11.43
2018-07-20T12:01:54.627Z,10.57
2018-07-20T12:04:23.116Z,21.73
2018-07-20T12:06:51.575Z,9.97
2018-07-20T12:09:19.645Z,8.70
2018-07-20T12:11:48.064Z,11.00
2018-07-20T12:14:16.488Z,8.43
2018-07-20T12:16:44.920Z,8.50
2018-07-20T12:19:13.357Z,9.03
2018-07-20T12:21:41.886Z,7.00
2018-07-20T12:24:10.326Z,11.97
2018-07-20T12:26:38.772Z,8.30
2018-07-20T12:29:07.196Z,9.40
2018-07-20T12:31:35.604Z,8.60
2018-07-20T12:34:04.051Z,6.33
2018-07-20T12:36:32.461Z,6.90
2018-07-20T12:39:00.878Z,11.40
2018-07-20T12:41:29.320Z,19.57
2018-07-20T12:43:57.827Z,6.30
2018-07-20T12:46:26.272Z,7.03
2018-07-20T12:48:54.676Z,8.20
2018-07-20T12:51:23.347Z,8.63
2018-07-20T12:53:51.760Z,7.80
2018-07-20T12:56:20.178Z,7.80
2018-07-20T12:58:50.220Z,6.13
2018-07-20T13:01:18.645Z,7.30
2018-07-20T13:03:47.138Z,8.60
2018-07-20T13:06:15.537Z,7.60
2018-07-20T13:08:44.212Z,11.50
2018-07-20T13:11:12.679Z,12.67
2018-07-20T13:13:42.028Z,8.07
2018-07-20T13:16:10.471Z,8.50
2018-07-20T13:18:38.968Z,11.60
2018-07-20T13:21:08.226Z,6.50
2018-07-20T13:23:36.623Z,7.07
2018-07-20T13:26:05.535Z,9.17
2018-07-20T13:28:34.329Z,10.03
2018-07-20T13:31:02.760Z,5.63
2018-07-20T13:33:31.210Z,8.60
2018-07-20T13:35:59.623Z,7.30
2018-07-20T13:38:28.069Z,11.30
2018-07-20T13:40:56.560Z,8.70
2018-07-20T13:43:25.015Z,8.10
2018-07-20T13:45:53.421Z,7.10
2018-07-20T13:48:21.724Z,5.60
2018-07-20T13:50:50.117Z,5.50
2018-07-20T13:53:18.552Z,6.33
2018-07-20T13:55:47.112Z,7.73
2018-07-20T13:58:15.663Z,6.33
2018-07-20T14:00:44.224Z,8.00
2018-07-20T14:03:12.645Z,11.00
2018-07-20T14:05:41.061Z,9.10
2018-07-20T14:08:09.649Z,6.70
2018-07-20T14:10:38.072Z,10.27
2018-07-20T14:13:06.620Z,8.23
2018-07-20T14:15:35.032Z,6.70
2018-07-20T14:18:03.527Z,6.83
2018-07-20T14:20:31.978Z,10.77
2018-07-20T14:23:00.385Z,6.03
2018-07-20T14:25:28.803Z,11.00
2018-07-20T14:27:57.247Z,7.50
2018-07-20T14:30:25.635Z,12.13
2018-07-20T14:32:54.029Z,11.10
2018-07-20T14:35:22.179Z,12.87
2018-07-20T14:37:50.579Z,11.50
2018-07-20T14:40:18.975Z,8.40
2018-07-20T14:42:47.113Z,8.13
2018-07-20T14:45:15.523Z,7.57
2018-07-20T14:47:43.932Z,6.53
2018-07-20T14:50:12.364Z,9.53
2018-07-20T14:52:40.516Z,9.07
2018-07-20T14:55:08.976Z,6.57
2018-07-20T14:57:37.392Z,7.00
2018-07-20T15:00:07.280Z,8.80
2018-07-20T15:02:35.792Z,7.70
2018-07-20T15:05:04.295Z,9.10
2018-07-20T15:07:32.745Z,10.37
2018-07-20T15:10:01.148Z,7.40
2018-07-20T15:12:29.585Z,7.40
2018-07-20T15:14:58.021Z,9.10
2018-07-20T15:17:26.420Z,12.17
2018-07-20T15:19:54.836Z,9.10
2018-07-20T15:22:23.277Z,8.67
2018-07-20T15:24:51.751Z,6.83
2018-07-20T15:27:20.180Z,10.73
2018-07-20T15:29:48.585Z,8.00
2018-07-20T15:32:17.001Z,7.70
2018-07-20T15:34:45.398Z,9.07
2018-07-20T15:37:13.810Z,12.07
2018-07-20T15:39:42.490Z,9.33
2018-07-20T15:42:10.908Z,8.67
2018-07-20T15:44:39.333Z,7.90
2018-07-20T15:47:08.055Z,13.63
2018-07-20T15:49:36.452Z,9.30
2018-07-20T15:54:34.387Z,8.83
2018-07-20T15:57:02.784Z,7.93
2018-07-20T15:59:31.194Z,8.77
2018-07-20T16:01:59.816Z,9.83
2018-07-20T16:04:28.260Z,7.20
2018-07-20T16:06:56.745Z,13.63
2018-07-20T16:09:25.477Z,14.87
2018-07-20T16:11:53.619Z,12.63
2018-07-20T16:14:22.391Z,8.90
2018-07-20T16:16:50.833Z,15.10
2018-07-20T16:19:19.248Z,14.07
2018-07-20T16:21:47.733Z,11.30
2018-07-20T16:24:16.161Z,10.40
2018-07-20T16:26:44.558Z,13.73
2018-07-20T16:29:13.093Z,10.27
2018-07-20T16:31:41.561Z,7.63
2018-07-20T16:34:09.977Z,11.43
2018-07-20T16:36:38.667Z,10.03
2018-07-20T16:39:09.160Z,9.80
2018-07-20T16:41:38.036Z,9.30
2018-07-20T16:44:06.484Z,11.40
2018-07-20T16:46:34.936Z,11.00
2018-07-20T16:49:03.103Z,9.40
2018-07-20T16:51:31.530Z,7.83
2018-07-20T16:53:59.915Z,10.17
2018-07-20T16:56:28.632Z,9.83
2018-07-20T16:58:57.212Z,10.70
2018-07-20T17:01:25.680Z,7.87
2018-07-20T17:03:54.677Z,8.10
2018-07-20T17:06:23.352Z,9.00
2018-07-20T17:08:51.773Z,9.00
2018-07-20T17:11:20.345Z,8.60
2018-07-20T17:13:48.756Z,13.80
2018-07-20T17:16:17.206Z,13.87
2018-07-20T17:18:45.781Z,8.27
2018-07-20T17:21:14.324Z,7.23
2018-07-20T17:23:42.751Z,9.83
2018-07-20T17:26:11.060Z,9.30
2018-07-20T17:28:39.486Z,7.50
2018-07-20T17:31:07.884Z,10.83
2018-07-20T17:33:36.346Z,7.17
2018-07-20T17:36:04.740Z,9.10
2018-07-20T17:38:33.148Z,11.23
2018-07-20T17:41:01.571Z,9.07
2018-07-20T17:43:29.969Z,8.43
2018-07-20T17:45:58.396Z,7.00
2018-07-20T17:48:27.004Z,7.33
2018-07-20T17:50:55.756Z,8.80
2018-07-20T17:53:24.171Z,9.40
2018-07-20T17:55:52.861Z,8.77
2018-07-20T17:58:21.467Z,7.20
2018-07-20T18:00:49.878Z,7.00
2018-07-20T18:03:18.292Z,9.43
2018-07-20T18:05:46.729Z,8.70
2018-07-20T18:08:15.143Z,7.10
2018-07-20T18:10:43.738Z,10.67
2018-07-20T18:13:12.149Z,8.17
2018-07-20T18:15:40.245Z,10.73
2018-07-20T18:18:09.000Z,13.77
2018-07-20T18:20:37.456Z,6.83
2018-07-20T18:23:05.939Z,9.43
2018-07-20T18:25:34.559Z,10.70
2018-07-20T18:28:02.974Z,7.67
2018-07-20T18:30:31.423Z,10.90
2018-07-20T18:33:00.252Z,10.37
2018-07-20T18:35:29.537Z,7.73
2018-07-20T18:37:58.046Z,11.20
2018-07-20T18:40:27.512Z,8.20
2018-07-20T18:42:56.462Z,11.23
2018-07-20T18:45:24.547Z,9.70
2018-07-20T18:47:52.980Z,10.37
2018-07-20T18:50:23.806Z,6.13
2018-07-20T18:52:53.687Z,7.40
2018-07-20T18:55:23.550Z,4.47
2018-07-20T18:57:54.941Z,8.40
2018-07-20T19:00:27.515Z,8.27
2018-07-20T19:03:00.243Z,12.30
2018-07-20T19:05:33.763Z,7.97
2018-07-20T19:08:06.332Z,10.13
2018-07-20T19:10:34.897Z,7.03
2018-07-20T19:13:03.304Z,7.90
2018-07-20T19:15:31.994Z,7.03
2018-07-20T19:18:00.430Z,4.83
2018-07-20T19:20:28.844Z,9.83
2018-07-20T19:22:57.545Z,6.60
2018-07-20T19:25:25.657Z,6.07
2018-07-20T19:27:54.069Z,4.73
2018-07-20T19:30:22.537Z,7.70
2018-07-20T19:32:50.933Z,8.40
2018-07-20T19:35:19.392Z,3.77
2018-07-20T19:37:48.004Z,6.23
2018-07-20T19:40:16.439Z,5.17
2018-07-20T19:42:44.898Z,10.50
2018-07-20T19:45:13.244Z,5.43
2018-07-20T19:47:41.684Z,7.60
2018-07-20T19:50:10.129Z,9.07
2018-07-20T19:52:38.557Z,8.90
2018-07-20T19:55:07.236Z,7.20
2018-07-20T19:57:36.082Z,8.87
2018-07-20T20:00:07.073Z,8.47
2018-07-20T20:02:35.801Z,7.00
2018-07-20T20:05:04.465Z,5.03
2018-07-20T20:07:32.876Z,9.67
2018-07-20T20:10:01.298Z,6.50
2018-07-20T20:12:29.712Z,4.40
2018-07-20T20:14:58.088Z,5.97
2018-07-20T20:17:27.027Z,4.83
2018-07-20T20:19:55.480Z,6.40
2018-07-20T20:22:23.936Z,5.53
2018-07-20T20:24:52.698Z,12.47
2018-07-20T20:27:21.413Z,7.50
2018-07-20T20:29:49.932Z,11.73
2018-07-20T20:32:18.380Z,8.33
2018-07-20T20:34:46.815Z,5.67
2018-07-20T20:37:15.257Z,6.47
2018-07-20T20:39:43.680Z,9.77
2018-07-20T20:42:12.203Z,11.00
2018-07-20T20:44:40.760Z,12.57
2018-07-20T20:47:09.169Z,5.47
2018-07-20T20:49:37.840Z,5.77
2018-07-20T20:52:06.481Z,8.83
2018-07-20T20:54:34.973Z,5.93
2018-07-20T20:57:03.484Z,10.47
2018-07-20T20:59:31.732Z,7.73
2018-07-20T21:02:00.536Z,5.30
2018-07-20T21:04:29.004Z,8.77
2018-07-20T21:06:57.433Z,7.50
2018-07-20T21:09:26.004Z,6.70
2018-07-20T21:11:54.357Z,8.17
2018-07-20T21:14:22.720Z,7.53
2018-07-20T21:16:51.149Z,6.40
2018-07-20T21:19:19.825Z,8.70
2018-07-20T21:21:48.328Z,6.63
2018-07-20T21:24:16.716Z,6.50
2018-07-20T21:26:45.225Z,12.30
2018-07-20T21:29:13.704Z,7.93
2018-07-20T21:31:42.167Z,7.00
2018-07-20T21:34:10.564Z,6.67
2018-07-20T21:36:39.002Z,6.80
2018-07-20T21:39:10.191Z,6.67
2018-07-20T21:41:38.881Z,9.70
2018-07-20T21:44:07.360Z,7.90
2018-07-20T21:46:35.758Z,6.07
2018-07-20T21:49:04.530Z,7.47
2018-07-20T21:51:34.204Z,9.80
2018-07-20T21:54:03.236Z,6.90
2018-07-20T21:56:31.758Z,6.63
2018-07-20T21:59:01.226Z,5.40
2018-07-20T22:01:29.649Z,10.50
2018-07-20T22:03:58.779Z,6.00
2018-07-20T22:06:27.224Z,6.70
2018-07-20T22:08:55.643Z,8.70
2018-07-20T22:11:24.217Z,7.47
2018-07-20T22:13:52.865Z,6.10
2018-07-20T22:16:21.243Z,7.53
2018-07-20T22:18:49.657Z,5.97
2018-07-20T22:21:18.125Z,6.00
2018-07-20T22:23:46.513Z,9.50
2018-07-20T22:26:14.957Z,5.33
2018-07-20T22:28:43.351Z,7.40
2018-07-20T22:31:12.021Z,7.27
2018-07-20T22:33:40.656Z,7.33
2018-07-20T22:36:09.052Z,5.90
2018-07-20T22:38:37.384Z,9.03
2018-07-20T22:41:05.844Z,6.83
2018-07-20T22:43:34.292Z,10.80
2018-07-20T22:46:02.916Z,13.47
2018-07-20T22:48:31.430Z,9.90
2018-07-20T22:50:59.814Z,8.03
2018-07-20T22:53:28.272Z,13.13
2018-07-20T22:55:56.671Z,12.23
2018-07-20T22:58:25.116Z,7.60
2018-07-20T23:00:53.545Z,7.17
2018-07-20T23:03:21.961Z,7.53
2018-07-20T23:05:50.599Z,7.63
2018-07-20T23:08:18.996Z,9.53
2018-07-20T23:10:47.470Z,6.40
2018-07-20T23:13:16.001Z,6.83
2018-07-20T23:15:44.463Z,6.37
2018-07-20T23:18:12.850Z,9.37
2018-07-20T23:20:41.376Z,8.90
2018-07-20T23:23:09.828Z,5.70
2018-07-20T23:25:38.280Z,10.40
2018-07-20T23:28:06.716Z,10.63
2018-07-20T23:30:35.113Z,12.27
2018-07-20T23:33:03.909Z,7.73
2018-07-20T23:35:32.373Z,5.67
2018-07-20T23:38:00.736Z,7.17
2018-07-20T23:40:29.328Z,9.30
2018-07-20T23:42:57.746Z,5.73
2018-07-20T23:45:26.133Z,13.63
2018-07-20T23:47:54.791Z,12.47
2018-07-20T23:50:23.300Z,8.23
2018-07-20T23:52:51.685Z,9.97
2018-07-20T23:55:20.133Z,5.60
2018-07-20T23:57:48.644Z,6.67
